KFOK

Francis S Gabreski Airport

Westhampton Beach, New York, USA
METAR KFOK 190453Z AUTO 34007KT 10SM CLR 21/19 A2978 RMK AO2 SLP082 T02060189 402560200
Observed Flight Rules
Sep-19 @ 04:53 UTC (33 minutes ago) Visual Flight Rules
Wind Visibility Clouds
340° at 7 knots 10 miles
  • Clear skies
Temperatures Readings
Current 21°C / 70°F
Dewpoint 19°C / 66°F
Humidity 88%
Altimeter 29.78" Hg
Pressure 1008.2 hPa
Elevation 33
METAR KFOK 190453Z AUTO 34007KT 10SM CLR 21/19 A2978 RMK AO2 SLP082 T02060189 402560200
Observed Flight Rules
Sep-19 @ 04:53 UTC
(33 minutes ago)
VFR
Wind Visibility
340° at 7 knots 10 miles
Clouds
  • Clear skies
Temperature Dewpoint
21°C / 70°F 19°C / 66°F
Humidity Altimeter Pressure
88% 29.78" Hg 1008.2 hPa